createdAt,value
2022-10-25T00:00:06.165Z,6.86
2022-10-25T00:01:07.298Z,6.84
2022-10-25T00:02:02.463Z,6.54
2022-10-25T00:02:56.209Z,6.81
2022-10-25T00:03:50.156Z,6.97
2022-10-25T00:04:44.153Z,6.43
2022-10-25T00:05:38.164Z,6.35
2022-10-25T00:06:25.196Z,6.74
2022-10-25T00:06:59.298Z,6.69
2022-10-25T00:07:46.470Z,6.81
2022-10-25T00:08:20.239Z,6.89
2022-10-25T00:09:07.183Z,7.18
2022-10-25T00:09:41.248Z,7.47
2022-10-25T00:10:28.145Z,7.63
2022-10-25T00:11:02.242Z,7.45
2022-10-25T00:11:50.205Z,7.79
2022-10-25T00:12:24.228Z,7.54
2022-10-25T00:13:12.150Z,7.38
2022-10-25T00:13:46.235Z,7.38
2022-10-25T00:14:34.143Z,7.63
2022-10-25T00:15:09.204Z,7.24
2022-10-25T00:15:56.137Z,7.36
2022-10-25T00:16:35.209Z,7.13
2022-10-25T00:17:16.180Z,6.49
2022-10-25T00:17:57.227Z,6.56
2022-10-25T00:18:37.157Z,6.72
2022-10-25T00:19:17.259Z,6.39
2022-10-25T00:19:58.164Z,6.06
2022-10-25T00:20:38.334Z,6.07
2022-10-25T00:21:18.137Z,6.34
2022-10-25T00:21:58.269Z,6.65
2022-10-25T00:22:38.178Z,6.68
2022-10-25T00:23:18.204Z,7.00
2022-10-25T00:23:59.128Z,6.39
2022-10-25T00:24:39.226Z,6.21
2022-10-25T00:25:20.145Z,6.07
2022-10-25T00:26:09.233Z,5.90
2022-10-25T00:26:49.145Z,6.59
2022-10-25T00:27:29.249Z,6.59
2022-10-25T00:28:09.181Z,6.78
2022-10-25T00:28:50.229Z,7.00
2022-10-25T00:29:30.164Z,6.57
2022-10-25T00:30:12.229Z,6.41
2022-10-25T00:30:52.135Z,6.59
2022-10-25T00:31:32.235Z,6.57
2022-10-25T00:32:12.146Z,6.18
2022-10-25T00:32:52.787Z,6.25
2022-10-25T00:33:37.185Z,5.88
2022-10-25T00:34:17.184Z,5.95
2022-10-25T00:34:58.133Z,6.09
2022-10-25T00:35:38.190Z,6.11
2022-10-25T00:36:28.133Z,5.79
2022-10-25T00:37:08.214Z,5.79
2022-10-25T00:37:48.139Z,5.88
2022-10-25T00:38:28.200Z,5.72
2022-10-25T00:39:09.182Z,6.04
2022-10-25T00:39:49.201Z,5.91
2022-10-25T00:40:29.133Z,5.93
2022-10-25T00:41:10.237Z,6.36
2022-10-25T00:41:50.145Z,6.19
2022-10-25T00:42:33.254Z,5.88
2022-10-25T00:43:16.143Z,6.13
2022-10-25T00:44:24.174Z,5.88
2022-10-25T00:45:38.130Z,5.79
2022-10-25T00:46:32.137Z,5.72
2022-10-25T00:47:35.129Z,5.63
2022-10-25T00:48:29.112Z,5.70
2022-10-25T00:49:33.150Z,5.70
2022-10-25T00:50:42.152Z,5.66
2022-10-25T00:51:42.142Z,5.01
2022-10-25T00:52:36.150Z,4.81
2022-10-25T00:53:40.124Z,4.76
2022-10-25T00:54:39.170Z,5.05
2022-10-25T00:55:35.133Z,4.55
2022-10-25T00:56:41.109Z,4.22
2022-10-25T00:57:56.144Z,4.41
2022-10-25T00:58:51.128Z,4.60
2022-10-25T00:59:46.207Z,4.96
2022-10-25T01:00:40.138Z,4.55
2022-10-25T01:01:34.210Z,4.45
2022-10-25T01:02:29.198Z,4.64
2022-10-25T01:03:23.213Z,4.45
2022-10-25T01:04:22.129Z,4.51
2022-10-25T01:05:10.137Z,4.19
2022-10-25T01:05:44.244Z,4.29
2022-10-25T01:06:41.102Z,4.65
2022-10-25T01:07:15.182Z,4.44
2022-10-25T01:08:02.101Z,4.72
2022-10-25T01:08:36.193Z,4.69
2022-10-25T01:09:28.094Z,4.65
2022-10-25T01:10:02.194Z,4.74
2022-10-25T01:10:44.169Z,4.82
2022-10-25T01:11:24.180Z,5.44
2022-10-25T01:12:05.104Z,5.68
2022-10-25T01:12:47.510Z,5.74
2022-10-25T01:13:30.126Z,5.63
2022-10-25T01:14:13.257Z,5.72
2022-10-25T01:14:57.085Z,6.30
2022-10-25T01:16:13.122Z,6.05
2022-10-25T01:17:44.113Z,6.15
2022-10-25T01:18:57.089Z,6.50
2022-10-25T01:20:29.096Z,6.78
2022-10-25T01:21:55.123Z,6.90
2022-10-25T01:23:12.115Z,7.25
2022-10-25T01:24:33.089Z,7.00
2022-10-25T01:26:03.104Z,6.84
2022-10-25T01:27:26.144Z,6.61
2022-10-25T01:29:08.089Z,6.03
2022-10-25T01:30:14.110Z,6.03
2022-10-25T01:31:34.089Z,5.60
2022-10-25T01:32:49.345Z,5.50
2022-10-25T01:33:51.080Z,5.35
2022-10-25T01:35:04.089Z,5.15
2022-10-25T01:37:01.084Z,5.22
2022-10-25T01:38:09.127Z,5.43
2022-10-25T01:39:19.076Z,5.57
2022-10-25T01:40:38.087Z,5.24
2022-10-25T01:41:55.066Z,5.00
2022-10-25T01:43:01.084Z,5.01
2022-10-25T01:43:48.112Z,4.97
2022-10-25T01:45:01.167Z,4.84
2022-10-25T01:45:53.073Z,5.00
2022-10-25T01:46:39.124Z,4.97
2022-10-25T01:47:40.069Z,4.76
2022-10-25T01:48:46.551Z,4.63
2022-10-25T01:49:52.127Z,4.75
2022-10-25T01:50:42.146Z,4.59
2022-10-25T01:51:25.073Z,4.72
2022-10-25T01:52:05.175Z,4.75
2022-10-25T01:52:45.142Z,4.60
2022-10-25T01:53:25.134Z,4.78
2022-10-25T01:54:05.057Z,4.81
2022-10-25T01:54:45.166Z,4.79
2022-10-25T01:55:27.086Z,4.56
2022-10-25T01:56:09.153Z,4.46
2022-10-25T01:57:21.065Z,4.39
2022-10-25T01:58:31.374Z,4.68
2022-10-25T01:59:43.071Z,4.69
2022-10-25T02:00:36.217Z,4.51
2022-10-25T02:02:03.075Z,4.59
2022-10-25T02:03:09.057Z,4.79
2022-10-25T02:04:53.068Z,4.97
2022-10-25T02:06:23.109Z,4.84
2022-10-25T02:07:37.041Z,4.86
2022-10-25T02:08:56.089Z,5.18
2022-10-25T02:10:30.081Z,5.47
2022-10-25T02:11:37.101Z,5.19
2022-10-25T02:12:40.050Z,4.69
2022-10-25T02:14:13.043Z,4.61
2022-10-25T02:15:46.066Z,4.51
2022-10-25T02:17:07.080Z,4.55
2022-10-25T02:18:15.045Z,4.49
2022-10-25T02:19:15.048Z,4.44
2022-10-25T02:20:13.037Z,4.72
2022-10-25T02:21:08.057Z,4.94
2022-10-25T02:22:03.069Z,4.31
2022-10-25T02:22:45.496Z,4.30
2022-10-25T02:23:27.121Z,4.16
2022-10-25T02:24:17.034Z,4.18
2022-10-25T02:24:58.128Z,4.57
2022-10-25T02:25:44.082Z,4.59
2022-10-25T02:26:25.129Z,4.32
2022-10-25T02:27:06.137Z,4.30
2022-10-25T02:27:54.054Z,4.36
2022-10-25T02:28:53.049Z,4.68
2022-10-25T02:29:48.051Z,4.70
2022-10-25T02:30:43.055Z,4.40
2022-10-25T02:31:38.040Z,4.44
2022-10-25T02:32:32.043Z,4.57
2022-10-25T02:33:19.124Z,4.39
2022-10-25T02:33:54.143Z,4.29
2022-10-25T02:34:41.027Z,4.31
2022-10-25T02:35:22.132Z,4.59
2022-10-25T02:36:29.040Z,4.26
2022-10-25T02:37:03.131Z,4.43
2022-10-25T02:37:50.243Z,4.60
2022-10-25T02:38:31.249Z,4.34
2022-10-25T02:39:27.742Z,4.39
2022-10-25T02:40:25.010Z,4.54
2022-10-25T02:41:20.025Z,5.04
2022-10-25T02:42:14.038Z,5.74
2022-10-25T02:43:08.030Z,6.11
2022-10-25T02:43:55.063Z,6.61
2022-10-25T02:44:29.120Z,6.99
2022-10-25T02:45:17.014Z,7.31
2022-10-25T02:45:51.093Z,7.84
2022-10-25T02:46:38.010Z,7.53
2022-10-25T02:47:12.078Z,7.00
2022-10-25T02:47:59.034Z,6.35
2022-10-25T02:48:33.130Z,6.04
2022-10-25T02:49:20.068Z,6.39
2022-10-25T02:49:54.115Z,6.05
2022-10-25T02:50:41.013Z,5.69
2022-10-25T02:51:17.100Z,5.15
2022-10-25T02:52:04.037Z,4.61
2022-10-25T02:52:38.080Z,4.76
2022-10-25T02:53:25.017Z,4.51
2022-10-25T02:53:59.079Z,4.55
2022-10-25T02:54:39.067Z,4.57
2022-10-25T02:55:19.101Z,4.24
2022-10-25T02:56:13.034Z,4.28
2022-10-25T02:56:53.105Z,4.09
2022-10-25T02:57:38.028Z,4.44
2022-10-25T02:58:18.092Z,4.63
2022-10-25T02:59:02.001Z,4.20
2022-10-25T02:59:49.054Z,3.90
2022-10-25T03:00:43.070Z,3.96
2022-10-25T03:01:38.063Z,3.70
2022-10-25T03:02:32.001Z,3.74
2022-10-25T03:03:26.016Z,3.76
2022-10-25T03:04:20.016Z,3.88
2022-10-25T03:05:07.103Z,3.80
2022-10-25T03:05:41.068Z,3.91
2022-10-25T03:06:27.997Z,4.01
2022-10-25T03:07:02.093Z,3.84
2022-10-25T03:07:49.026Z,3.61
2022-10-25T03:08:23.120Z,3.67
2022-10-25T03:09:11.013Z,3.70
2022-10-25T03:09:45.083Z,3.81
2022-10-25T03:10:32.013Z,3.94
2022-10-25T03:11:06.105Z,3.84
2022-10-25T03:11:53.005Z,3.83
2022-10-25T03:12:27.120Z,4.05
2022-10-25T03:13:13.976Z,3.59
2022-10-25T03:13:48.096Z,3.76
2022-10-25T03:14:35.006Z,3.72
2022-10-25T03:15:09.060Z,3.74
2022-10-25T03:15:56.015Z,3.78
2022-10-25T03:16:30.107Z,3.89
2022-10-25T03:17:16.985Z,3.72
2022-10-25T03:17:51.122Z,3.72
2022-10-25T03:18:39.010Z,3.72
2022-10-25T03:19:13.040Z,3.89
2022-10-25T03:19:59.984Z,3.86
2022-10-25T03:20:34.125Z,3.97
2022-10-25T03:21:21.029Z,3.95
2022-10-25T03:21:55.084Z,3.83
2022-10-25T03:22:41.997Z,3.75
2022-10-25T03:23:17.046Z,3.80
2022-10-25T03:24:03.981Z,3.79
2022-10-25T03:24:38.063Z,3.92
2022-10-25T03:25:24.985Z,3.94
2022-10-25T03:26:04.046Z,3.97
2022-10-25T03:26:45.029Z,4.05
2022-10-25T03:27:25.055Z,3.79
2022-10-25T03:28:08.030Z,3.70
2022-10-25T03:28:48.049Z,3.56
2022-10-25T03:29:27.992Z,3.53
2022-10-25T03:30:08.055Z,3.70
2022-10-25T03:30:48.983Z,3.78
2022-10-25T03:31:29.094Z,3.86
2022-10-25T03:32:12.054Z,3.92
2022-10-25T03:32:52.074Z,3.75
2022-10-25T03:33:32.993Z,3.83
2022-10-25T03:34:13.069Z,3.75
2022-10-25T03:34:52.991Z,3.64
2022-10-25T03:35:34.060Z,3.88
2022-10-25T03:36:14.972Z,3.99
2022-10-25T03:36:55.048Z,4.07
2022-10-25T03:37:35.022Z,3.80
2022-10-25T03:38:15.033Z,3.79
2022-10-25T03:38:54.977Z,3.97
2022-10-25T03:39:35.067Z,3.72
2022-10-25T03:40:15.982Z,3.71
2022-10-25T03:40:56.090Z,3.86
2022-10-25T03:41:36.991Z,3.90
2022-10-25T03:42:17.094Z,3.84
2022-10-25T03:42:57.041Z,3.67
2022-10-25T03:43:37.074Z,4.09
2022-10-25T03:44:16.965Z,4.29
2022-10-25T03:44:58.032Z,4.18
2022-10-25T03:45:37.973Z,4.28
2022-10-25T03:46:18.088Z,3.90
2022-10-25T03:46:59.062Z,3.91
2022-10-25T03:47:39.057Z,4.21
2022-10-25T03:48:20.003Z,4.26
2022-10-25T03:49:00.063Z,3.97
2022-10-25T03:49:39.962Z,3.91
2022-10-25T03:50:20.071Z,4.38
2022-10-25T03:51:00.969Z,4.16
2022-10-25T03:51:41.080Z,4.13
2022-10-25T03:52:21.957Z,4.00
2022-10-25T03:53:02.096Z,4.16
2022-10-25T03:53:42.005Z,4.06
2022-10-25T03:54:24.369Z,4.03
2022-10-25T03:55:07.956Z,4.26
2022-10-25T03:55:48.254Z,4.28
2022-10-25T03:56:27.976Z,4.15
2022-10-25T03:57:08.014Z,4.19
2022-10-25T03:57:48.386Z,4.31
2022-10-25T03:58:29.029Z,4.01
2022-10-25T03:59:09.989Z,3.90
2022-10-25T03:59:50.060Z,3.94
2022-10-25T04:00:30.064Z,4.07
2022-10-25T04:01:10.227Z,4.10
2022-10-25T04:01:50.974Z,4.20
2022-10-25T04:02:31.036Z,4.26
2022-10-25T04:03:10.949Z,3.99
2022-10-25T04:03:51.079Z,4.30
2022-10-25T04:04:30.980Z,4.30
2022-10-25T04:05:12.004Z,3.88
2022-10-25T04:05:51.994Z,4.05
2022-10-25T04:06:33.162Z,4.11
2022-10-25T04:07:13.963Z,4.04
2022-10-25T04:07:54.085Z,4.03
2022-10-25T04:08:33.948Z,3.89
2022-10-25T04:09:14.030Z,3.83
2022-10-25T04:10:01.049Z,3.81
2022-10-25T04:10:34.814Z,4.06
2022-10-25T04:11:21.948Z,4.20
2022-10-25T04:11:55.657Z,4.04
2022-10-25T04:12:43.004Z,3.88
2022-10-25T04:13:16.689Z,3.96
2022-10-25T04:14:03.949Z,4.15
2022-10-25T04:14:38.751Z,4.25
2022-10-25T04:15:27.023Z,4.36
2022-10-25T04:16:23.953Z,4.93
2022-10-25T04:17:17.929Z,4.95
2022-10-25T04:18:12.938Z,4.99
2022-10-25T04:19:07.960Z,4.85
2022-10-25T04:20:01.957Z,4.88
2022-10-25T04:20:48.973Z,5.28
2022-10-25T04:21:23.001Z,5.70
2022-10-25T04:22:10.939Z,5.76
2022-10-25T04:22:45.041Z,5.55
2022-10-25T04:23:31.954Z,5.65
2022-10-25T04:24:06.045Z,5.63
2022-10-25T04:24:52.933Z,5.47
2022-10-25T04:25:27.042Z,5.55
2022-10-25T04:26:14.000Z,5.45
2022-10-25T04:26:48.032Z,5.34
2022-10-25T04:27:34.958Z,5.21
2022-10-25T04:28:09.049Z,5.29
2022-10-25T04:28:58.946Z,5.15
2022-10-25T04:29:33.009Z,5.14
2022-10-25T04:30:19.935Z,5.16
2022-10-25T04:30:54.010Z,4.86
2022-10-25T04:31:34.969Z,4.94
2022-10-25T04:32:15.105Z,5.21
2022-10-25T04:32:54.960Z,4.91
2022-10-25T04:33:35.002Z,4.69
2022-10-25T04:34:14.947Z,4.60
2022-10-25T04:34:55.013Z,4.49
2022-10-25T04:35:34.945Z,4.61
2022-10-25T04:36:15.007Z,4.71
2022-10-25T04:36:55.966Z,4.72
2022-10-25T04:37:35.988Z,4.72
2022-10-25T04:38:17.925Z,4.97
2022-10-25T04:39:00.056Z,4.93
2022-10-25T04:39:40.926Z,4.54
2022-10-25T04:40:22.695Z,4.44
2022-10-25T04:41:06.928Z,4.54
2022-10-25T04:41:47.005Z,4.63
2022-10-25T04:42:26.944Z,4.46
2022-10-25T04:43:06.996Z,4.22
2022-10-25T04:43:46.917Z,4.57
2022-10-25T04:44:26.981Z,4.51
2022-10-25T04:45:07.921Z,4.60
2022-10-25T04:45:47.978Z,4.36
2022-10-25T04:46:28.930Z,4.30
2022-10-25T04:47:08.972Z,4.35
2022-10-25T04:47:48.978Z,4.26
2022-10-25T04:48:29.126Z,4.36
2022-10-25T04:49:08.903Z,4.64
2022-10-25T04:49:48.991Z,4.40
2022-10-25T04:50:28.904Z,4.28
2022-10-25T04:51:09.158Z,4.34
2022-10-25T04:52:38.007Z,4.36
2022-10-25T04:53:18.941Z,4.29
2022-10-25T04:54:02.992Z,4.10
2022-10-25T04:54:42.900Z,4.03
2022-10-25T04:55:22.989Z,4.00
2022-10-25T04:56:08.893Z,4.00
2022-10-25T04:56:48.957Z,3.78
2022-10-25T04:57:29.901Z,3.66
2022-10-25T04:58:10.968Z,3.95
2022-10-25T04:58:50.946Z,4.14
2022-10-25T04:59:30.986Z,4.00
2022-10-25T05:00:11.899Z,4.01
2022-10-25T05:00:54.302Z,4.13
2022-10-25T05:01:34.945Z,3.95
2022-10-25T05:02:15.022Z,3.84
2022-10-25T05:02:57.966Z,3.80
2022-10-25T05:03:38.952Z,3.80
2022-10-25T05:04:18.941Z,4.15
2022-10-25T05:04:58.985Z,4.21
2022-10-25T05:05:38.918Z,3.89
2022-10-25T05:06:32.007Z,3.79
2022-10-25T05:07:12.908Z,4.01
2022-10-25T05:07:53.024Z,3.76
2022-10-25T05:08:32.885Z,3.56
2022-10-25T05:09:12.949Z,3.78
2022-10-25T05:09:52.912Z,3.79
2022-10-25T05:10:35.981Z,3.81
2022-10-25T05:11:17.899Z,3.84
2022-10-25T05:11:58.985Z,4.00
2022-10-25T05:12:39.893Z,4.21
2022-10-25T05:13:19.965Z,4.13
2022-10-25T05:13:59.968Z,4.11
2022-10-25T05:14:39.985Z,3.79
2022-10-25T05:15:21.019Z,3.96
2022-10-25T05:16:16.889Z,4.00
2022-10-25T05:17:10.864Z,3.91
2022-10-25T05:18:04.933Z,3.89
2022-10-25T05:19:00.896Z,4.01
2022-10-25T05:19:54.901Z,4.46
2022-10-25T05:20:41.912Z,4.26
2022-10-25T05:21:17.053Z,4.54
2022-10-25T05:22:03.920Z,4.95
2022-10-25T05:22:38.022Z,4.91
2022-10-25T05:23:25.866Z,4.90
2022-10-25T05:24:01.796Z,4.94
2022-10-25T05:24:49.900Z,5.21
2022-10-25T05:25:24.023Z,5.31
2022-10-25T05:26:09.918Z,5.22
2022-10-25T05:26:49.973Z,5.50
2022-10-25T05:27:29.878Z,5.51
2022-10-25T05:28:09.959Z,5.53
2022-10-25T05:28:52.892Z,5.82
2022-10-25T05:29:32.965Z,5.90
2022-10-25T05:30:13.930Z,6.00
2022-10-25T05:30:54.000Z,5.68
2022-10-25T05:31:36.918Z,5.89
2022-10-25T05:32:16.950Z,5.80
2022-10-25T05:33:02.712Z,6.00
2022-10-25T05:33:45.162Z,6.45
2022-10-25T05:34:24.881Z,6.16
2022-10-25T05:35:04.956Z,6.15
2022-10-25T05:35:44.878Z,6.32
2022-10-25T05:36:25.984Z,6.16
2022-10-25T05:37:05.916Z,6.03
2022-10-25T05:37:45.957Z,6.00
2022-10-25T05:38:25.910Z,6.24
2022-10-25T05:39:06.966Z,6.47
2022-10-25T05:39:46.889Z,6.44
2022-10-25T05:40:26.963Z,6.19
2022-10-25T05:41:07.896Z,6.06
2022-10-25T05:41:49.600Z,6.00
2022-10-25T05:42:29.889Z,6.07
2022-10-25T05:43:09.933Z,6.10
2022-10-25T05:43:50.882Z,5.74
2022-10-25T05:44:30.951Z,5.97
2022-10-25T05:45:11.887Z,6.14
2022-10-25T05:45:51.979Z,5.96
2022-10-25T05:46:31.874Z,5.76
2022-10-25T05:47:11.985Z,6.22
2022-10-25T05:47:52.901Z,6.13
2022-10-25T05:48:32.934Z,6.21
2022-10-25T05:49:12.859Z,5.86
2022-10-25T05:49:52.952Z,5.54
2022-10-25T05:50:33.901Z,5.47
2022-10-25T05:51:33.334Z,5.72
2022-10-25T05:52:14.871Z,5.38
2022-10-25T05:53:01.909Z,5.20
2022-10-25T05:53:58.870Z,5.38
2022-10-25T05:54:52.875Z,5.22
2022-10-25T05:55:46.898Z,5.46
2022-10-25T05:56:42.867Z,5.20
2022-10-25T05:57:36.865Z,5.36
2022-10-25T05:58:23.894Z,5.31
2022-10-25T05:58:58.010Z,5.41
2022-10-25T05:59:44.871Z,5.55
2022-10-25T06:00:19.945Z,5.35
2022-10-25T06:01:08.011Z,5.20
2022-10-25T06:02:01.047Z,5.01
2022-10-25T06:02:49.845Z,5.24
2022-10-25T06:03:30.900Z,5.11
2022-10-25T06:04:25.882Z,5.03
2022-10-25T06:05:19.861Z,4.85
2022-10-25T06:06:16.852Z,4.93
2022-10-25T06:07:10.857Z,5.16
2022-10-25T06:08:04.855Z,4.82
2022-10-25T06:08:52.869Z,4.80
2022-10-25T06:09:26.916Z,4.74
2022-10-25T06:10:14.873Z,4.90
2022-10-25T06:10:48.941Z,5.05
2022-10-25T06:11:39.881Z,4.91
2022-10-25T06:12:13.927Z,5.00
2022-10-25T06:13:00.870Z,5.14
2022-10-25T06:13:34.941Z,5.20
2022-10-25T06:14:16.878Z,5.25
2022-10-25T06:14:56.905Z,5.63
2022-10-25T06:15:36.892Z,5.51
2022-10-25T06:16:22.025Z,5.24
2022-10-25T06:17:04.159Z,5.50
2022-10-25T06:17:43.936Z,4.91
2022-10-25T06:18:23.856Z,5.18
2022-10-25T06:19:03.969Z,5.31
2022-10-25T06:19:44.982Z,4.71
2022-10-25T06:20:24.929Z,4.94
2022-10-25T06:21:09.842Z,5.06
2022-10-25T06:21:49.973Z,4.93
2022-10-25T06:22:29.828Z,4.79
2022-10-25T06:23:11.114Z,4.75
2022-10-25T06:23:52.861Z,4.85
2022-10-25T06:24:32.987Z,4.85
2022-10-25T06:25:13.886Z,4.78
2022-10-25T06:25:54.508Z,4.56
2022-10-25T06:26:36.850Z,4.63
2022-10-25T06:27:16.902Z,4.68
2022-10-25T06:27:57.849Z,4.82
2022-10-25T06:28:39.004Z,4.64
2022-10-25T06:29:19.860Z,4.94
2022-10-25T06:29:59.909Z,4.68
2022-10-25T06:30:43.873Z,4.69
2022-10-25T06:31:25.928Z,5.00
2022-10-25T06:32:05.885Z,4.86
2022-10-25T06:32:46.180Z,4.75
2022-10-25T06:33:28.046Z,4.66
2022-10-25T06:34:09.894Z,4.91
2022-10-25T06:34:50.816Z,4.96
2022-10-25T06:35:30.881Z,4.74
2022-10-25T06:36:13.857Z,4.71
2022-10-25T06:36:54.913Z,4.80
2022-10-25T06:37:34.892Z,4.64
2022-10-25T06:38:14.984Z,4.51
2022-10-25T06:38:57.568Z,4.26
2022-10-25T06:39:39.900Z,4.61
2022-10-25T06:40:19.829Z,4.85
2022-10-25T06:41:08.929Z,4.81
2022-10-25T06:41:48.845Z,4.72
2022-10-25T06:42:28.912Z,4.95
2022-10-25T06:43:08.834Z,5.05
2022-10-25T06:44:55.826Z,5.82
2022-10-25T06:45:35.883Z,6.51
2022-10-25T06:46:27.821Z,5.64
2022-10-25T06:47:17.704Z,5.72
2022-10-25T06:47:51.936Z,5.66
2022-10-25T06:48:39.090Z,5.61
2022-10-25T06:49:12.908Z,5.90
2022-10-25T06:49:59.888Z,6.09
2022-10-25T06:50:33.899Z,6.14
2022-10-25T06:51:21.852Z,6.06
2022-10-25T06:51:55.963Z,6.24
2022-10-25T06:52:35.842Z,6.40
2022-10-25T06:53:15.909Z,6.38
2022-10-25T06:54:17.172Z,6.45
2022-10-25T06:54:57.885Z,6.66
2022-10-25T06:55:38.832Z,6.95
2022-10-25T06:56:20.930Z,6.53
2022-10-25T06:57:00.824Z,6.82
2022-10-25T06:57:47.850Z,6.88
2022-10-25T06:58:45.826Z,6.80
2022-10-25T06:59:39.810Z,6.88
2022-10-25T07:00:33.796Z,6.66
2022-10-25T07:01:29.951Z,6.51
2022-10-25T07:02:23.909Z,6.39
2022-10-25T07:03:10.868Z,6.64
2022-10-25T07:03:46.073Z,7.21
2022-10-25T07:04:32.817Z,7.21
2022-10-25T07:05:06.872Z,7.10
2022-10-25T07:05:53.796Z,7.94
2022-10-25T07:06:35.810Z,7.50
2022-10-25T07:07:23.809Z,6.54
2022-10-25T07:07:57.869Z,6.44
2022-10-25T07:08:39.898Z,6.44
2022-10-25T07:09:19.874Z,6.32
2022-10-25T07:10:00.826Z,6.32
2022-10-25T07:10:40.943Z,6.32
2022-10-25T07:11:25.789Z,6.39
2022-10-25T07:12:11.428Z,5.72
2022-10-25T07:12:52.786Z,5.69
2022-10-25T07:13:32.858Z,5.45
2022-10-25T07:14:12.819Z,5.51
2022-10-25T07:14:52.889Z,5.72
2022-10-25T07:15:32.802Z,5.65
2022-10-25T07:16:16.938Z,5.80
2022-10-25T07:16:56.825Z,5.97
2022-10-25T07:17:36.896Z,5.78
2022-10-25T07:18:16.786Z,5.64
2022-10-25T07:18:56.871Z,5.32
2022-10-25T07:19:37.808Z,5.26
2022-10-25T07:20:17.869Z,4.93
2022-10-25T07:20:57.787Z,5.40
2022-10-25T07:21:39.909Z,5.07
2022-10-25T07:22:19.797Z,4.64
2022-10-25T07:23:00.634Z,5.26
2022-10-25T07:23:44.822Z,5.38
2022-10-25T07:24:24.849Z,5.41
2022-10-25T07:25:05.940Z,4.94
2022-10-25T07:25:45.840Z,5.34
2022-10-25T07:26:28.814Z,5.91
2022-10-25T07:27:08.927Z,4.91
2022-10-25T07:27:49.218Z,5.16
2022-10-25T07:28:43.792Z,4.82
2022-10-25T07:29:37.833Z,3.99
2022-10-25T07:30:24.863Z,3.80
2022-10-25T07:30:58.886Z,4.06
2022-10-25T07:31:50.803Z,3.76
2022-10-25T07:32:24.854Z,3.56
2022-10-25T07:33:11.760Z,3.74
2022-10-25T07:33:45.836Z,3.66
2022-10-25T07:34:32.797Z,3.72
2022-10-25T07:35:06.967Z,3.70
2022-10-25T07:35:59.098Z,3.76
2022-10-25T07:36:48.857Z,4.11
2022-10-25T07:37:29.779Z,4.74
2022-10-25T07:38:09.849Z,4.68
2022-10-25T07:38:49.772Z,4.09
2022-10-25T07:39:29.847Z,3.96
2022-10-25T07:40:10.798Z,4.18
2022-10-25T07:40:57.814Z,4.66
2022-10-25T07:41:51.801Z,4.30
2022-10-25T07:42:45.796Z,4.63
2022-10-25T07:43:40.771Z,4.76
2022-10-25T07:44:35.835Z,5.57
2022-10-25T07:45:31.210Z,5.18
2022-10-25T07:46:18.797Z,5.59
2022-10-25T07:46:53.959Z,5.68
2022-10-25T07:47:40.804Z,5.32
2022-10-25T07:48:14.873Z,5.14
2022-10-25T07:49:01.780Z,4.93
2022-10-25T07:49:36.905Z,4.72
2022-10-25T07:50:25.836Z,4.20
2022-10-25T07:50:59.830Z,4.01
2022-10-25T07:51:39.787Z,4.49
2022-10-25T07:52:20.454Z,4.93
2022-10-25T07:53:03.746Z,4.72
2022-10-25T07:53:43.858Z,4.51
2022-10-25T07:54:23.789Z,3.84
2022-10-25T07:55:03.905Z,3.63
2022-10-25T07:55:43.756Z,3.29
2022-10-25T07:56:25.893Z,3.14
2022-10-25T07:57:05.833Z,3.61
2022-10-25T07:57:47.160Z,3.80
2022-10-25T07:58:28.798Z,3.50
2022-10-25T07:59:08.868Z,3.49
2022-10-25T07:59:49.731Z,3.36
2022-10-25T08:00:29.849Z,3.09
2022-10-25T08:01:12.823Z,3.05
2022-10-25T08:01:53.934Z,3.14
2022-10-25T08:02:34.795Z,2.94
2022-10-25T08:03:14.919Z,3.41
2022-10-25T08:03:55.742Z,3.30
2022-10-25T08:04:35.827Z,2.95
2022-10-25T08:05:16.746Z,2.95
2022-10-25T08:05:56.808Z,3.04
2022-10-25T08:06:36.745Z,2.97
2022-10-25T08:07:16.840Z,3.85
2022-10-25T08:07:57.797Z,5.41
2022-10-25T08:08:37.926Z,7.05
2022-10-25T08:09:36.992Z,7.84
2022-10-25T08:10:19.493Z,8.91
2022-10-25T08:10:59.740Z,7.78
2022-10-25T08:11:39.846Z,4.35
2022-10-25T08:12:22.547Z,3.66
2022-10-25T08:13:09.956Z,3.03
2022-10-25T08:14:03.737Z,2.91
2022-10-25T08:14:57.751Z,2.46
2022-10-25T08:15:51.737Z,2.35
2022-10-25T08:16:32.469Z,2.33
2022-10-25T08:17:20.752Z,2.49
2022-10-25T08:18:01.716Z,2.51
2022-10-25T08:18:42.760Z,2.46
2022-10-25T08:19:16.810Z,2.36
2022-10-25T08:19:51.446Z,2.38
2022-10-25T08:21:00.135Z,2.44
2022-10-25T08:21:26.871Z,2.36
2022-10-25T08:22:00.440Z,2.33
2022-10-25T08:22:41.732Z,2.53
2022-10-25T08:23:15.930Z,2.97
2022-10-25T08:23:55.785Z,2.76
2022-10-25T08:24:38.613Z,2.61
2022-10-25T08:25:19.940Z,2.20
2022-10-25T08:26:01.802Z,2.17
2022-10-25T08:26:41.758Z,2.35
2022-10-25T08:27:21.992Z,2.59
2022-10-25T08:28:01.748Z,2.64
2022-10-25T08:28:44.074Z,2.25
2022-10-25T08:29:24.823Z,2.23
2022-10-25T08:30:04.817Z,2.50
2022-10-25T08:30:46.762Z,2.22
2022-10-25T08:31:26.791Z,2.24
2022-10-25T08:32:06.715Z,2.46
2022-10-25T08:32:46.842Z,2.34
2022-10-25T08:33:26.744Z,2.61
2022-10-25T08:34:07.900Z,2.72
2022-10-25T08:34:47.778Z,2.47
2022-10-25T08:35:27.811Z,2.46
2022-10-25T08:36:10.726Z,2.29
2022-10-25T08:36:50.867Z,2.50
2022-10-25T08:37:31.716Z,2.69
2022-10-25T08:38:12.790Z,2.28
2022-10-25T08:38:53.703Z,2.19
2022-10-25T08:39:33.779Z,2.13
2022-10-25T08:40:15.757Z,2.45
2022-10-25T08:41:06.899Z,2.54
2022-10-25T08:42:06.727Z,2.63
2022-10-25T08:43:31.790Z,2.95
2022-10-25T08:44:29.723Z,3.08
2022-10-25T08:46:06.762Z,2.66
2022-10-25T08:46:59.670Z,2.51
2022-10-25T08:47:51.714Z,2.47
2022-10-25T08:48:35.349Z,2.76
2022-10-25T08:50:17.698Z,3.01
2022-10-25T08:50:54.110Z,3.51
2022-10-25T08:51:40.759Z,3.88
2022-10-25T08:52:31.801Z,3.17
2022-10-25T08:53:33.871Z,2.99
2022-10-25T08:54:36.736Z,2.83
2022-10-25T08:55:21.792Z,2.58
2022-10-25T08:56:15.545Z,3.04
2022-10-25T08:57:15.020Z,2.97
2022-10-25T08:57:50.813Z,2.79
2022-10-25T08:59:04.862Z,2.64
2022-10-25T08:59:47.722Z,2.54
2022-10-25T09:00:25.907Z,2.59
2022-10-25T09:01:05.207Z,2.83
2022-10-25T09:01:53.848Z,2.84
2022-10-25T09:03:07.730Z,2.78
2022-10-25T09:03:41.794Z,2.89
2022-10-25T09:04:29.753Z,2.54
2022-10-25T09:05:04.544Z,2.55
2022-10-25T09:06:09.805Z,2.84
2022-10-25T09:07:13.697Z,2.78
2022-10-25T09:08:02.769Z,2.94
2022-10-25T09:09:19.716Z,2.69
2022-10-25T09:10:22.832Z,2.81
2022-10-25T09:11:29.692Z,2.86
2022-10-25T09:12:40.821Z,2.99
2022-10-25T09:13:38.713Z,2.65
2022-10-25T09:14:59.717Z,2.63
2022-10-25T09:16:27.684Z,2.75
2022-10-25T09:17:32.703Z,2.60
2022-10-25T09:18:31.710Z,2.42
2022-10-25T09:20:17.728Z,2.53
2022-10-25T09:21:15.643Z,2.51
2022-10-25T09:22:17.698Z,2.86
2022-10-25T09:23:18.758Z,2.88
2022-10-25T09:24:19.691Z,2.51
2022-10-25T09:25:36.766Z,2.81
2022-10-25T09:26:55.707Z,2.80
2022-10-25T09:27:53.677Z,2.74
2022-10-25T09:29:02.745Z,2.79
2022-10-25T09:30:08.669Z,2.96
2022-10-25T09:30:57.753Z,3.14
2022-10-25T09:31:32.757Z,2.90
2022-10-25T09:32:43.697Z,2.74
2022-10-25T09:33:23.771Z,2.67
2022-10-25T09:34:14.686Z,2.78
2022-10-25T09:34:48.765Z,2.83
2022-10-25T09:35:51.685Z,2.49
2022-10-25T09:36:33.694Z,2.39
2022-10-25T09:38:00.727Z,2.46
2022-10-25T09:39:06.727Z,2.74
2022-10-25T09:40:08.674Z,2.45
2022-10-25T09:41:35.695Z,2.40
2022-10-25T09:42:41.646Z,2.58
2022-10-25T09:43:45.642Z,2.50
2022-10-25T09:44:49.692Z,2.60
2022-10-25T09:45:56.696Z,2.60
2022-10-25T09:47:10.706Z,2.53
2022-10-25T09:48:35.664Z,2.55
2022-10-25T09:50:00.662Z,2.75
2022-10-25T09:51:14.731Z,3.01
2022-10-25T09:53:01.704Z,3.26
2022-10-25T09:53:57.669Z,3.30
2022-10-25T09:55:15.675Z,3.04
2022-10-25T09:56:12.687Z,2.99
2022-10-25T09:57:06.651Z,2.99
2022-10-25T09:58:00.684Z,3.36
2022-10-25T09:58:48.661Z,3.55
2022-10-25T09:59:28.802Z,3.36
2022-10-25T10:00:09.680Z,2.81
2022-10-25T10:00:49.733Z,2.92
2022-10-25T10:01:33.767Z,2.66
2022-10-25T10:02:21.803Z,2.60
2022-10-25T10:03:01.741Z,2.51
2022-10-25T10:03:45.654Z,2.44
2022-10-25T10:04:41.689Z,2.51
2022-10-25T10:05:24.793Z,2.49
2022-10-25T10:06:34.665Z,2.55
2022-10-25T10:07:26.729Z,2.44
2022-10-25T10:08:06.681Z,2.25
2022-10-25T10:08:47.721Z,2.14
2022-10-25T10:09:28.649Z,2.10
2022-10-25T10:10:12.737Z,2.10
2022-10-25T10:10:54.665Z,2.44
2022-10-25T10:11:34.730Z,2.45
2022-10-25T10:12:30.686Z,2.38
2022-10-25T10:13:26.693Z,2.30
2022-10-25T10:14:31.646Z,1.99
2022-10-25T10:15:49.629Z,2.06
2022-10-25T10:16:57.673Z,2.01
2022-10-25T10:17:51.663Z,2.24
2022-10-25T10:18:47.709Z,2.39
2022-10-25T10:19:43.645Z,2.10
2022-10-25T10:20:37.639Z,2.06
2022-10-25T10:21:33.646Z,2.19
2022-10-25T10:22:29.666Z,2.36
2022-10-25T10:23:27.672Z,2.53
2022-10-25T10:24:12.794Z,2.36
2022-10-25T10:24:56.801Z,2.34
2022-10-25T10:25:37.655Z,2.28
2022-10-25T10:26:40.078Z,2.41
2022-10-25T10:29:00.606Z,2.11
2022-10-25T10:31:50.662Z,2.09
2022-10-25T10:54:49.738Z,2.26
2022-10-25T10:55:50.638Z,2.55